Time;durP1;ratioP1;P1;durP2;ratioP2;P2;SDS_P1;SDS_P2;PMS_P1;PMS_P2;Temp;Humidity;BMP_temperature;BMP_pressure;BME280_temperature;BME280_humidity;BME280_pressure;Samples;Min_cycle;Max_cycle;Signal;HPM_P1;HPM_P2
2021/03/14 00:01:32;;;;;;;237.05;141.57;;;179.40;2252.80;;;;;;4910581;29;20441;-86
2021/03/14 00:05:08;;;;;;;211.60;125.32;;;179.30;2252.80;;;;;;4917017;29;20040;-85
2021/03/14 00:22:28;;;;;;;153.52;102.55;;;154.30;2252.80;;;;;;4924864;29;20050;-81
2021/03/14 00:29:59;;;;;;;169.90;97.43;;;154.20;2252.80;;;;;;4811282;29;20516;-84
2021/03/14 01:13:56;;;;;;;280.77;149.85;;;154.00;2252.80;;;;;;4715961;26;20494;-80
2021/03/14 01:21:15;;;;;;;265.08;147.90;;;153.80;2252.80;;;;;;4920747;29;20084;-81
2021/03/14 01:23:42;;;;;;;201.82;114.18;;;153.80;2252.80;;;;;;4920323;29;20032;-81
2021/03/14 01:34:07;;;;;;;254.10;137.65;;;154.10;2252.80;;;;;;4820633;29;20138;-81
2021/03/14 01:41:08;;;;;;;149.95;92.55;;;154.00;2252.80;;;;;;4697599;30;20049;-80
2021/03/14 01:51:33;;;;;;;175.98;103.57;;;128.90;2252.80;;;;;;4722875;30;20032;-82
2021/03/14 02:05:32;;;;;;;178.07;109.55;;;128.90;2252.80;;;;;;4790536;29;20035;-79
2021/03/14 02:09:05;;;;;;;155.07;94.30;;;128.70;2252.80;;;;;;4766806;29;20012;-79
2021/03/14 03:29:33;;;;;;;86.15;49.83;;;102.80;2227.20;;;;;;4946550;28;20077;-80
2021/03/14 03:58:11;;;;;;;118.10;68.40;;;103.30;2227.20;;;;;;4884788;29;20093;-80
2021/03/14 04:34:04;;;;;;;118.45;69.97;;;102.70;2227.20;;;;;;4827507;29;20086;-81
2021/03/14 05:10:45;;;;;;;153.23;86.05;;;103.10;2227.20;;;;;;4911746;29;20039;-81
2021/03/14 05:45:38;;;;;;;127.70;77.28;;;103.00;2227.20;;;;;;4885778;29;20035;-79
2021/03/14 05:52:29;;;;;;;117.53;74.63;;;128.00;2252.80;;;;;;4908619;29;20043;-80
2021/03/14 05:56:07;;;;;;;132.80;75.40;;;128.20;2252.80;;;;;;4905854;29;20024;-79
2021/03/14 06:00:13;;;;;;;170.52;93.10;;;103.30;2227.20;;;;;;4876521;29;20041;-80
2021/03/14 06:40:00;;;;;;;205.18;126.00;;;153.60;2252.80;;;;;;4720519;30;20057;-80
2021/03/14 06:46:58;;;;;;;144.55;91.93;;;153.90;2252.80;;;;;;4760271;29;20106;-80
2021/03/14 07:01:05;;;;;;;104.25;70.35;;;153.90;2252.80;;;;;;4813739;29;20050;-80
2021/03/14 07:04:34;;;;;;;139.02;80.97;;;154.20;2252.80;;;;;;4813282;29;20023;-79
2021/03/14 07:08:03;;;;;;;105.35;60.63;;;154.30;2252.80;;;;;;4811496;29;20054;-81
2021/03/14 07:18:32;;;;;;;133.30;69.53;;;154.50;2252.80;;;;;;4827251;29;20233;-81
2021/03/14 07:22:01;;;;;;;77.57;46.22;;;179.20;2252.80;;;;;;4783761;30;20406;-81
2021/03/14 07:47:45;;;;;;;174.10;95.63;;;205.20;2252.80;;;;;;4806461;29;20201;-87
2021/03/14 07:50:19;;;;;;;114.75;70.18;;;205.20;2252.80;;;;;;4806141;29;20066;-87
2021/03/14 07:52:46;;;;;;;94.57;59.40;;;205.30;2252.80;;;;;;4805835;29;20049;-87
2021/03/14 07:55:17;;;;;;;69.45;49.08;;;205.40;2252.80;;;;;;4791211;29;20122;-87
2021/03/14 07:57:45;;;;;;;67.78;47.10;;;205.50;2252.80;;;;;;4820384;29;20030;-89
2021/03/14 08:00:37;;;;;;;72.35;51.35;;;205.70;2252.80;;;;;;4860901;29;20123;-88
2021/03/14 08:03:08;;;;;;;56.33;38.70;;;230.50;2252.80;;;;;;4845706;29;20089;-88
2021/03/14 08:05:39;;;;;;;46.30;34.10;;;230.60;2252.80;;;;;;4860479;29;20045;-88
2021/03/14 08:08:11;;;;;;;44.13;33.42;;;230.70;2252.80;;;;;;4845473;29;20025;-88
2021/03/14 08:10:42;;;;;;;59.20;43.05;;;230.80;2252.80;;;;;;4845468;29;20022;-90
2021/03/14 08:13:16;;;;;;;57.30;41.78;;;230.90;2252.80;;;;;;4874232;29;20041;-89
2021/03/14 08:15:42;;;;;;;122.47;82.10;;;231.00;2252.80;;;;;;4877916;29;20215;-84
2021/03/14 08:18:37;;;;;;;78.30;57.05;;;231.20;2252.80;;;;;;4881400;29;20506;-86
2021/03/14 08:21:04;;;;;;;98.35;65.20;;;231.20;2252.80;;;;;;4881658;29;20029;-87
2021/03/14 08:23:44;;;;;;;366.63;212.63;;;256.00;2252.80;;;;;;4880613;29;20032;-88
2021/03/14 08:26:28;;;;;;;171.00;109.05;;;256.10;2252.80;;;;;;4882166;29;20048;-87
2021/03/14 08:28:56;;;;;;;113.60;74.03;;;256.30;2252.80;;;;;;4881341;29;20028;-88
2021/03/14 08:31:42;;;;;;;80.28;55.40;;;256.50;2252.80;;;;;;4881944;29;20029;-81
2021/03/14 08:34:10;;;;;;;77.15;54.22;;;256.60;2252.80;;;;;;4880812;29;20033;-85
2021/03/14 08:36:46;;;;;;;86.78;55.67;;;256.70;2252.80;;;;;;4884455;29;20418;-80
2021/03/14 08:39:36;;;;;;;96.95;62.83;;;256.80;2252.80;;;;;;4937101;29;20063;-82
2021/03/14 08:42:04;;;;;;;73.38;49.38;;;281.60;2278.40;;;;;;4913236;29;20028;-85
2021/03/14 08:44:40;;;;;;;72.32;48.80;;;281.80;2278.40;;;;;;4901395;29;20032;-78
2021/03/14 08:47:08;;;;;;;72.45;47.17;;;282.10;2278.40;;;;;;4900192;29;20032;-80
2021/03/14 08:49:36;;;;;;;61.30;41.10;;;282.30;2278.40;;;;;;4900898;29;20032;-82
2021/03/14 08:52:03;;;;;;;68.97;48.05;;;282.50;2278.40;;;;;;4901596;29;20054;-81
2021/03/14 08:54:34;;;;;;;57.40;36.53;;;282.50;2278.40;;;;;;4901605;29;20427;-79
2021/03/14 08:57:06;;;;;;;52.60;36.40;;;307.30;2304.00;;;;;;4901689;29;20050;-78
2021/03/14 08:59:33;;;;;;;44.87;31.40;;;307.40;2304.00;;;;;;4901237;29;20044;-79
2021/03/14 09:02:01;;;;;;;89.20;52.75;;;307.30;2304.00;;;;;;4900414;29;20305;-81
2021/03/14 09:04:35;;;;;;;82.82;52.15;;;307.50;2304.00;;;;;;4918748;29;20498;-80
2021/03/14 09:07:11;;;;;;;49.88;34.08;;;307.60;2304.00;;;;;;4919268;29;20075;-82
2021/03/14 09:09:39;;;;;;;72.70;46.53;;;307.80;2304.00;;;;;;4919352;29;20504;-79
2021/03/14 09:12:07;;;;;;;46.53;31.20;;;307.90;2304.00;;;;;;4919622;29;20035;-85
2021/03/14 09:14:39;;;;;;;53.42;38.47;;;307.90;2304.00;;;;;;4937052;29;20130;-85
2021/03/14 09:17:23;;;;;;;45.03;31.90;;;308.10;2304.00;;;;;;4919991;29;20462;-84
2021/03/14 09:19:50;;;;;;;61.90;38.72;;;333.00;2329.60;;;;;;4919714;29;20024;-85
2021/03/14 09:22:26;;;;;;;35.33;24.45;;;333.00;2329.60;;;;;;4937402;29;20043;-85
2021/03/14 09:24:56;;;;;;;30.95;22.83;;;333.20;2329.60;;;;;;4936964;29;20045;-85
2021/03/14 09:27:25;;;;;;;33.13;21.73;;;333.20;2329.60;;;;;;4937016;29;20028;-82
2021/03/14 09:29:56;;;;;;;50.38;34.13;;;333.20;2329.60;;;;;;4920090;29;20032;-84
2021/03/14 09:32:26;;;;;;;28.27;19.38;;;333.20;2329.60;;;;;;4919951;29;20024;-85
2021/03/14 09:35:08;;;;;;;33.22;23.75;;;333.20;2329.60;;;;;;4919545;29;20031;-86
2021/03/14 09:37:35;;;;;;;66.40;42.25;;;333.30;2329.60;;;;;;4936810;29;20434;-90
2021/03/14 09:40:19;;;;;;;41.83;28.95;;;333.40;2329.60;;;;;;4919737;29;20386;-83
2021/03/14 09:42:48;;;;;;;39.10;26.10;;;333.50;2329.60;;;;;;4936708;29;20028;-84
2021/03/14 09:45:16;;;;;;;29.00;17.98;;;333.70;2329.60;;;;;;4936342;29;20036;-79
2021/03/14 09:48:00;;;;;;;25.17;15.38;;;358.40;2227.20;;;;;;4918934;29;20498;-81
2021/03/14 09:50:27;;;;;;;10.48;7.53;;;358.70;2150.40;;;;;;4925008;29;20099;-81
2021/03/14 09:52:53;;;;;;;13.05;7.85;;;358.90;1996.80;;;;;;4936275;29;20024;-80
2021/03/14 09:55:33;;;;;;;8.65;5.43;;;359.10;1945.60;;;;;;4922450;29;20101;-78
2021/03/14 09:58:00;;;;;;;14.15;6.15;;;359.20;1945.60;;;;;;4938854;29;20035;-81
2021/03/14 10:00:32;;;;;;;13.32;8.77;;;359.30;1920.00;;;;;;4929806;29;20102;-79
2021/03/14 10:03:03;;;;;;;7.72;5.25;;;384.10;1920.00;;;;;;4936674;29;20402;-75
2021/03/14 10:05:47;;;;;;;9.40;5.45;;;384.10;1843.20;;;;;;4922768;29;20043;-76
2021/03/14 10:08:20;;;;;;;12.00;5.90;;;384.20;1868.80;;;;;;4921613;29;20047;-77
2021/03/14 10:10:48;;;;;;;13.60;7.65;;;384.10;1894.40;;;;;;4940176;29;20521;-76
2021/03/14 10:13:14;;;;;;;11.80;7.72;;;384.20;1894.40;;;;;;4922852;29;20035;-77
2021/03/14 10:15:41;;;;;;;14.43;6.72;;;384.40;1843.20;;;;;;4922326;29;20055;-77
2021/03/14 10:18:08;;;;;;;11.20;5.80;;;384.50;1817.60;;;;;;4922763;29;20043;-76
2021/03/14 10:20:37;;;;;;;14.25;7.00;;;409.70;1766.40;;;;;;4922722;29;20087;-77
2021/03/14 10:23:08;;;;;;;15.32;9.25;;;409.70;1766.40;;;;;;4922641;29;20446;-78
2021/03/14 10:25:36;;;;;;;11.38;7.55;;;410.00;1792.00;;;;;;4939950;29;20039;-76
2021/03/14 10:28:14;;;;;;;18.15;9.20;;;410.30;1715.20;;;;;;4922595;29;20405;-76
2021/03/14 10:30:42;;;;;;;21.10;10.48;;;410.30;1740.80;;;;;;4922294;29;20381;-79
2021/03/14 10:33:30;;;;;;;20.60;12.77;;;410.20;1715.20;;;;;;4922449;29;20027;-79
2021/03/14 10:36:07;;;;;;;13.88;8.65;;;410.20;1715.20;;;;;;4922356;29;20038;-79
2021/03/14 10:38:47;;;;;;;16.65;10.20;;;410.30;1817.60;;;;;;4939786;29;20047;-80
2021/03/14 10:41:18;;;;;;;12.15;6.45;;;410.10;1817.60;;;;;;4939594;29;20063;-78
2021/03/14 10:43:52;;;;;;;19.08;11.15;;;410.00;1766.40;;;;;;4922659;29;20036;-76
2021/03/14 10:46:39;;;;;;;10.18;6.97;;;410.30;1740.80;;;;;;4939498;29;20505;-78
2021/03/14 10:49:11;;;;;;;14.45;8.43;;;435.30;1638.40;;;;;;4939362;29;20031;-79
2021/03/14 10:51:38;;;;;;;16.15;9.27;;;435.40;1612.80;;;;;;4921917;29;20027;-80
2021/03/14 10:54:06;;;;;;;17.27;6.35;;;435.60;1638.40;;;;;;4922160;29;20138;-81
2021/03/14 10:56:34;;;;;;;10.32;6.45;;;435.80;1587.20;;;;;;4921795;29;20055;-78
2021/03/14 10:59:01;;;;;;;12.25;7.20;;;435.90;1536.00;;;;;;4938839;29;20406;-78
2021/03/14 11:01:31;;;;;;;16.00;7.75;;;435.90;1561.60;;;;;;4922365;29;20039;-79
2021/03/14 11:04:05;;;;;;;9.60;5.38;;;461.30;1561.60;;;;;;4939116;29;20026;-79
2021/03/14 11:06:31;;;;;;;7.35;5.65;;;435.80;1536.00;;;;;;4922581;29;20079;-83
2021/03/14 11:09:05;;;;;;;9.93;5.82;;;435.90;1536.00;;;;;;4921937;29;20534;-78
2021/03/14 11:11:40;;;;;;;10.70;7.50;;;435.80;1536.00;;;;;;4938515;29;20024;-80
2021/03/14 11:14:26;;;;;;;17.30;10.15;;;435.60;1561.60;;;;;;4921573;29;20027;-80
2021/03/14 11:17:27;;;;;;;15.68;10.45;;;435.40;1612.80;;;;;;4922419;29;20024;-79
2021/03/14 11:19:53;;;;;;;20.95;12.85;;;435.40;1638.40;;;;;;4925518;29;20049;-85
2021/03/14 11:22:20;;;;;;;14.90;8.32;;;435.60;1638.40;;;;;;4921659;29;20032;-82
2021/03/14 11:24:47;;;;;;;16.90;11.05;;;435.60;1587.20;;;;;;4921820;29;20126;-83
2021/03/14 11:27:14;;;;;;;9.90;6.68;;;435.50;1638.40;;;;;;4938713;29;20035;-87
2021/03/14 11:29:41;;;;;;;12.25;7.32;;;435.40;1587.20;;;;;;4922046;29;20480;-82
2021/03/14 11:32:13;;;;;;;15.98;8.80;;;435.30;1638.40;;;;;;4921548;29;20031;-85
2021/03/14 11:34:45;;;;;;;11.65;7.10;;;435.30;1612.80;;;;;;4922818;29;20032;-88
2021/03/14 11:37:13;;;;;;;13.43;8.43;;;435.30;1612.80;;;;;;4921105;29;20051;-85
2021/03/14 11:39:40;;;;;;;17.00;7.78;;;435.20;1638.40;;;;;;4921877;29;20762;-88
2021/03/14 11:42:06;;;;;;;22.73;9.65;;;410.50;1612.80;;;;;;4917825;29;20024;-86
2021/03/14 11:44:32;;;;;;;18.55;8.32;;;410.50;1612.80;;;;;;4903019;29;20032;-88
2021/03/14 11:46:58;;;;;;;11.20;7.60;;;410.50;1612.80;;;;;;4902211;29;20036;-85
2021/03/14 11:49:24;;;;;;;16.23;8.98;;;410.50;1587.20;;;;;;4902449;29;20434;-83
2021/03/14 11:51:51;;;;;;;14.70;9.52;;;410.50;1612.80;;;;;;4919748;29;20027;-87
2021/03/14 11:54:17;;;;;;;11.27;6.43;;;410.50;1612.80;;;;;;4919417;29;20059;-87
2021/03/14 11:56:44;;;;;;;9.13;6.28;;;410.40;1612.80;;;;;;4902595;29;20031;-85
2021/03/14 11:59:11;;;;;;;15.10;9.40;;;410.30;1612.80;;;;;;4902694;29;20359;-87
2021/03/14 12:01:36;;;;;;;12.02;8.63;;;410.30;1638.40;;;;;;4902371;29;20029;-85
2021/03/14 12:04:02;;;;;;;19.92;13.43;;;435.70;1561.60;;;;;;4902500;29;20099;-88
2021/03/14 12:06:28;;;;;;;16.10;11.65;;;435.60;1561.60;;;;;;4902746;29;20103;-89
2021/03/14 12:08:54;;;;;;;22.77;13.45;;;435.70;1561.60;;;;;;4902441;29;20036;-86
2021/03/14 12:11:20;;;;;;;23.58;15.23;;;460.90;1536.00;;;;;;4902125;29;20467;-83
2021/03/14 12:13:46;;;;;;;12.50;9.60;;;461.00;1510.40;;;;;;4902710;29;20056;-84
2021/03/14 12:16:12;;;;;;;16.27;11.05;;;460.80;1484.80;;;;;;4900807;29;20059;-83
2021/03/14 12:18:38;;;;;;;14.55;8.85;;;435.90;1510.40;;;;;;4902298;29;20423;-81
2021/03/14 12:21:04;;;;;;;27.45;16.58;;;436.00;1510.40;;;;;;4916893;29;20036;-82
2021/03/14 12:23:30;;;;;;;23.00;16.98;;;435.90;1536.00;;;;;;4930864;29;20043;-82
2021/03/14 12:25:57;;;;;;;15.85;10.70;;;460.90;1510.40;;;;;;4901685;29;20050;-78
2021/03/14 12:28:24;;;;;;;19.58;13.38;;;461.40;1459.20;;;;;;4900403;29;20104;-80
2021/03/14 12:30:50;;;;;;;17.00;9.95;;;461.40;1484.80;;;;;;4918476;29;20028;-83
2021/03/14 12:33:17;;;;;;;19.70;13.60;;;435.90;1484.80;;;;;;4902831;29;20028;-84
2021/03/14 12:35:43;;;;;;;15.60;10.20;;;436.10;1510.40;;;;;;4901013;29;20123;-81
2021/03/14 12:38:10;;;;;;;17.40;10.85;;;435.60;1510.40;;;;;;4900477;29;20435;-80
2021/03/14 12:40:36;;;;;;;22.88;11.90;;;435.60;1561.60;;;;;;4907881;29;20115;-82
2021/03/14 12:43:02;;;;;;;15.80;11.50;;;435.50;1561.60;;;;;;4919716;29;20032;-82
2021/03/14 12:45:27;;;;;;;14.07;8.93;;;435.40;1587.20;;;;;;4900993;29;20641;-79
2021/03/14 12:47:53;;;;;;;12.70;8.02;;;435.30;1561.60;;;;;;4900544;29;20371;-80
2021/03/14 12:50:20;;;;;;;15.23;11.48;;;435.30;1536.00;;;;;;4901348;29;20028;-83
2021/03/14 12:52:46;;;;;;;17.83;11.93;;;435.60;1536.00;;;;;;4908886;29;20028;-81
2021/03/14 12:55:12;;;;;;;18.73;10.00;;;435.80;1510.40;;;;;;4936780;29;20035;-85
2021/03/14 12:57:39;;;;;;;24.15;14.98;;;436.00;1484.80;;;;;;4935002;29;20393;-81
2021/03/14 13:00:10;;;;;;;13.80;8.55;;;460.90;1484.80;;;;;;4936886;29;20035;-83
2021/03/14 13:02:37;;;;;;;15.18;9.77;;;460.90;1484.80;;;;;;4920359;29;20036;-85
2021/03/14 13:05:05;;;;;;;17.17;10.00;;;461.10;1433.60;;;;;;4919643;29;20176;-86
2021/03/14 13:07:32;;;;;;;12.00;7.45;;;461.20;1433.60;;;;;;4936969;29;20074;-82
2021/03/14 13:09:58;;;;;;;11.27;8.05;;;461.30;1382.40;;;;;;4936345;29;20020;-83
2021/03/14 13:12:24;;;;;;;9.65;6.30;;;461.40;1408.00;;;;;;4913798;29;20046;-83
2021/03/14 13:14:49;;;;;;;10.40;6.22;;;461.60;1382.40;;;;;;4897404;29;20391;-81
2021/03/14 13:17:15;;;;;;;10.18;6.43;;;461.60;1382.40;;;;;;4882037;29;20029;-84
2021/03/14 13:19:41;;;;;;;14.77;6.70;;;461.50;1382.40;;;;;;4883273;29;20063;-83
2021/03/14 13:22:07;;;;;;;12.98;7.00;;;461.30;1408.00;;;;;;4886073;29;20455;-83
2021/03/14 13:24:33;;;;;;;11.65;7.35;;;461.00;1408.00;;;;;;4880379;29;20032;-83
2021/03/14 13:27:01;;;;;;;19.52;10.13;;;436.10;1382.40;;;;;;4896980;29;20058;-83
2021/03/14 13:29:27;;;;;;;39.90;18.75;;;436.00;1408.00;;;;;;4879889;29;20045;-83
2021/03/14 13:31:53;;;;;;;12.75;8.05;;;435.80;1408.00;;;;;;4879208;29;20448;-85
2021/03/14 13:34:19;;;;;;;17.92;11.05;;;435.60;1433.60;;;;;;4882835;29;20033;-85
2021/03/14 13:36:45;;;;;;;26.75;18.98;;;435.50;1459.20;;;;;;4881575;29;20092;-87
2021/03/14 13:39:11;;;;;;;16.17;10.43;;;435.40;1484.80;;;;;;4882223;29;20035;-87
2021/03/14 13:41:36;;;;;;;26.92;12.32;;;435.40;1459.20;;;;;;4882416;29;20115;-86
2021/03/14 13:44:02;;;;;;;19.63;13.88;;;435.30;1484.80;;;;;;4882286;29;20167;-87
2021/03/14 13:46:29;;;;;;;26.20;17.27;;;435.30;1484.80;;;;;;4882209;29;20034;-87
2021/03/14 13:48:54;;;;;;;17.65;11.18;;;435.30;1536.00;;;;;;4882499;29;20033;-86
2021/03/14 13:51:20;;;;;;;20.00;14.63;;;435.20;1510.40;;;;;;4882366;29;20506;-86
2021/03/14 13:53:46;;;;;;;22.15;16.45;;;435.20;1536.00;;;;;;4898620;29;20068;-86
2021/03/14 13:56:12;;;;;;;23.73;14.70;;;435.20;1536.00;;;;;;4882336;29;20035;-86
2021/03/14 13:58:38;;;;;;;26.45;18.05;;;410.50;1561.60;;;;;;4882373;29;20028;-86
2021/03/14 14:01:05;;;;;;;20.58;14.73;;;410.50;1561.60;;;;;;4881985;29;20059;-86
2021/03/14 14:03:34;;;;;;;10.70;7.10;;;410.50;1536.00;;;;;;4883041;29;20379;-85
2021/03/14 14:06:01;;;;;;;19.02;12.07;;;410.50;1510.40;;;;;;4882453;29;20394;-86
2021/03/14 14:08:27;;;;;;;28.10;20.02;;;410.40;1536.00;;;;;;4882479;29;20464;-87
2021/03/14 14:10:53;;;;;;;98.05;72.95;;;410.40;1536.00;;;;;;4899082;29;20085;-87
2021/03/14 14:13:19;;;;;;;19.77;13.48;;;410.40;1561.60;;;;;;4882466;29;20032;-87
2021/03/14 14:15:45;;;;;;;12.20;7.68;;;410.30;1536.00;;;;;;4910854;29;20062;-85
2021/03/14 14:18:11;;;;;;;33.30;27.45;;;410.20;1561.60;;;;;;4919508;29;20059;-86
2021/03/14 14:20:41;;;;;;;23.30;17.98;;;410.20;1561.60;;;;;;4919925;29;20023;-86
2021/03/14 14:23:08;;;;;;;44.08;39.95;;;410.20;1612.80;;;;;;4919494;29;20028;-85
2021/03/14 14:25:35;;;;;;;25.63;19.85;;;410.20;1587.20;;;;;;4919465;29;20067;-86
2021/03/14 14:28:01;;;;;;;29.58;21.02;;;410.20;1587.20;;;;;;4919239;29;20028;-86
2021/03/14 14:30:29;;;;;;;27.90;20.95;;;410.30;1587.20;;;;;;4919985;29;20027;-87
2021/03/14 14:32:56;;;;;;;19.88;13.82;;;410.30;1587.20;;;;;;4919687;29;20024;-86
2021/03/14 14:35:22;;;;;;;32.83;18.08;;;410.30;1561.60;;;;;;4919987;29;20038;-89
2021/03/14 14:37:48;;;;;;;21.55;16.40;;;410.40;1561.60;;;;;;4919661;29;20389;-88
2021/03/14 14:40:14;;;;;;;25.80;16.08;;;410.40;1561.60;;;;;;4921142;29;20028;-84
2021/03/14 14:42:39;;;;;;;23.38;14.07;;;410.30;1561.60;;;;;;4912017;29;20056;-83
2021/03/14 14:45:06;;;;;;;16.35;10.82;;;410.30;1536.00;;;;;;4903778;29;20039;-84
2021/03/14 14:47:32;;;;;;;19.92;11.23;;;410.20;1536.00;;;;;;4903198;29;20036;-85
2021/03/14 14:49:58;;;;;;;32.28;20.75;;;410.20;1587.20;;;;;;4903799;29;20024;-85
2021/03/14 14:52:24;;;;;;;38.40;21.85;;;410.10;1561.60;;;;;;4904363;29;20458;-87
2021/03/14 14:54:49;;;;;;;31.42;20.13;;;410.00;1587.20;;;;;;4920604;29;20032;-84
2021/03/14 14:57:15;;;;;;;15.20;9.93;;;410.00;1612.80;;;;;;4903824;29;20040;-87
2021/03/14 14:59:41;;;;;;;30.25;19.27;;;410.00;1561.60;;;;;;4903848;29;20058;-86
2021/03/14 15:02:07;;;;;;;22.17;13.30;;;409.90;1561.60;;;;;;4904101;29;20032;-84
2021/03/14 15:04:33;;;;;;;21.27;12.52;;;409.90;1587.20;;;;;;4920368;29;20426;-86
2021/03/14 15:06:59;;;;;;;28.75;17.60;;;409.80;1587.20;;;;;;4919283;29;20047;-87
2021/03/14 15:09:25;;;;;;;36.53;22.27;;;409.70;1612.80;;;;;;4903239;29;20036;-84
2021/03/14 15:11:52;;;;;;;36.72;23.13;;;409.70;1612.80;;;;;;4920512;29;20024;-87
2021/03/14 15:14:17;;;;;;;27.63;15.13;;;409.70;1664.00;;;;;;4903426;29;20090;-87
2021/03/14 15:16:43;;;;;;;26.98;18.15;;;409.70;1612.80;;;;;;4903602;29;20028;-86
2021/03/14 15:19:09;;;;;;;54.33;37.38;;;409.60;1638.40;;;;;;4903312;29;20398;-88
2021/03/14 15:21:35;;;;;;;45.35;30.63;;;409.60;1638.40;;;;;;4920829;29;20067;-87
2021/03/14 15:24:01;;;;;;;57.47;38.58;;;409.60;1664.00;;;;;;4916737;29;20031;-86
2021/03/14 15:26:27;;;;;;;47.33;32.85;;;409.60;1689.60;;;;;;4938554;29;20062;-88
2021/03/14 15:28:54;;;;;;;32.30;17.13;;;409.60;1715.20;;;;;;4937714;29;20119;-87
2021/03/14 15:31:20;;;;;;;42.85;29.48;;;384.90;1664.00;;;;;;4938251;29;20035;-88
2021/03/14 15:33:48;;;;;;;32.97;21.00;;;384.90;1689.60;;;;;;4938318;29;20032;-87
2021/03/14 15:36:14;;;;;;;35.63;22.45;;;384.80;1689.60;;;;;;4938123;29;20051;-87
2021/03/14 15:38:40;;;;;;;35.00;22.30;;;384.90;1689.60;;;;;;4939191;29;20067;-83
2021/03/14 15:41:06;;;;;;;34.72;20.67;;;384.70;1715.20;;;;;;4937147;29;20054;-80
2021/03/14 15:43:32;;;;;;;22.38;13.27;;;384.80;1715.20;;;;;;4921614;29;20029;-83
2021/03/14 15:45:58;;;;;;;36.70;21.75;;;384.70;1715.20;;;;;;4918865;29;20036;-84
2021/03/14 15:48:24;;;;;;;27.73;18.02;;;384.70;1740.80;;;;;;4918863;29;20047;-83
2021/03/14 15:50:50;;;;;;;32.92;21.92;;;384.70;1740.80;;;;;;4918940;29;20030;-84
2021/03/14 15:53:16;;;;;;;29.70;19.50;;;384.70;1740.80;;;;;;4902294;29;20040;-85
2021/03/14 15:55:42;;;;;;;27.38;18.83;;;384.60;1766.40;;;;;;4902435;29;20043;-85
2021/03/14 15:58:09;;;;;;;35.90;22.77;;;384.60;1766.40;;;;;;4919501;29;20035;-84
2021/03/14 16:00:36;;;;;;;26.40;16.35;;;384.60;1766.40;;;;;;4902538;29;20028;-85
2021/03/14 16:03:03;;;;;;;18.00;10.05;;;384.50;1766.40;;;;;;4902501;29;20509;-86
2021/03/14 16:05:29;;;;;;;32.28;20.63;;;384.50;1740.80;;;;;;4902031;29;20079;-85
2021/03/14 16:07:55;;;;;;;39.08;25.10;;;384.40;1766.40;;;;;;4919386;29;20444;-84
2021/03/14 16:10:21;;;;;;;26.73;19.02;;;384.40;1792.00;;;;;;4902633;29;20032;-85
2021/03/14 16:12:47;;;;;;;41.95;29.17;;;384.00;1792.00;;;;;;4928668;29;20020;-85
2021/03/14 16:15:13;;;;;;;41.25;22.98;;;384.40;1817.60;;;;;;4917917;29;20569;-84
2021/03/14 16:17:38;;;;;;;32.33;20.30;;;384.30;1792.00;;;;;;4920004;29;20482;-83
2021/03/14 16:20:06;;;;;;;27.75;20.10;;;384.30;1817.60;;;;;;4928237;29;20028;-80
2021/03/14 16:22:32;;;;;;;26.17;19.30;;;384.30;1792.00;;;;;;4907343;29;20033;-81
2021/03/14 16:24:58;;;;;;;16.83;12.82;;;384.30;1817.60;;;;;;4918375;29;20100;-80
2021/03/14 16:27:24;;;;;;;34.22;19.42;;;384.30;1843.20;;;;;;4920433;29;20033;-82
2021/03/14 16:29:50;;;;;;;38.75;24.02;;;384.20;1817.60;;;;;;4919185;29;20528;-79
2021/03/14 16:32:17;;;;;;;62.55;39.30;;;384.20;1843.20;;;;;;4920501;29;20062;-82
2021/03/14 16:34:44;;;;;;;59.75;38.35;;;384.10;1843.20;;;;;;4920210;29;20055;-79
2021/03/14 16:37:15;;;;;;;44.55;30.65;;;384.10;1843.20;;;;;;4920902;29;20513;-82
2021/03/14 16:39:45;;;;;;;31.70;20.52;;;384.00;1868.80;;;;;;4920412;29;20122;-81
2021/03/14 16:42:13;;;;;;;48.78;32.13;;;384.00;1843.20;;;;;;4920411;29;20055;-81
2021/03/14 16:44:39;;;;;;;40.67;27.13;;;384.00;1868.80;;;;;;4920855;29;20083;-80
2021/03/14 16:47:05;;;;;;;26.35;18.27;;;384.00;1817.60;;;;;;4920061;29;20028;-81
2021/03/14 16:49:31;;;;;;;24.95;17.40;;;359.30;1817.60;;;;;;4920287;29;20524;-80
2021/03/14 16:51:57;;;;;;;23.88;14.98;;;359.30;1766.40;;;;;;4937500;29;20086;-81
2021/03/14 16:54:23;;;;;;;22.80;14.75;;;359.30;1766.40;;;;;;4902815;29;20043;-80
2021/03/14 16:56:49;;;;;;;29.13;18.08;;;359.30;1792.00;;;;;;4900825;29;20032;-81
2021/03/14 16:59:15;;;;;;;34.80;23.80;;;359.30;1766.40;;;;;;4900392;29;20025;-81
2021/03/14 17:01:41;;;;;;;34.35;24.08;;;359.30;1792.00;;;;;;4900768;29;20126;-79
2021/03/14 17:04:07;;;;;;;43.20;30.40;;;359.20;1766.40;;;;;;4917641;29;20026;-79
2021/03/14 17:06:33;;;;;;;31.30;21.08;;;359.20;1792.00;;;;;;4900943;29;20063;-78
2021/03/14 17:08:59;;;;;;;24.25;15.02;;;359.20;1766.40;;;;;;4917692;29;20028;-81
2021/03/14 17:11:25;;;;;;;34.28;20.70;;;359.10;1792.00;;;;;;4917615;29;20016;-82
2021/03/14 17:13:51;;;;;;;32.70;22.50;;;359.10;1817.60;;;;;;4901017;29;20455;-81
2021/03/14 17:16:17;;;;;;;36.20;23.15;;;359.10;1817.60;;;;;;4900368;29;20135;-79
2021/03/14 17:18:43;;;;;;;37.15;23.67;;;359.00;1817.60;;;;;;4900810;29;20028;-80
2021/03/14 17:21:09;;;;;;;35.30;17.92;;;359.00;1817.60;;;;;;4917626;29;20395;-82
2021/03/14 17:23:35;;;;;;;33.60;22.52;;;359.00;1843.20;;;;;;4917498;29;20024;-81
2021/03/14 17:26:02;;;;;;;26.10;16.40;;;359.00;1817.60;;;;;;4925569;29;20052;-81
2021/03/14 17:28:28;;;;;;;25.33;15.52;;;359.00;1817.60;;;;;;4902725;29;20123;-81
2021/03/14 17:30:54;;;;;;;21.35;14.43;;;359.00;1817.60;;;;;;4899741;29;20063;-80
2021/03/14 17:33:20;;;;;;;20.27;14.98;;;359.00;1792.00;;;;;;4917327;29;20027;-80
2021/03/14 17:35:47;;;;;;;27.17;17.95;;;359.00;1817.60;;;;;;4902946;29;20055;-81
2021/03/14 17:38:13;;;;;;;24.60;15.57;;;359.00;1843.20;;;;;;4916265;29;20028;-81
2021/03/14 17:40:40;;;;;;;28.35;17.38;;;359.00;1843.20;;;;;;4915110;29;20028;-82
2021/03/14 17:43:05;;;;;;;28.35;18.90;;;359.00;1843.20;;;;;;4916235;29;20621;-82
2021/03/14 17:45:31;;;;;;;36.55;19.48;;;359.00;1843.20;;;;;;4916207;29;20067;-82
2021/03/14 17:47:57;;;;;;;32.10;17.65;;;359.00;1843.20;;;;;;4916293;29;20088;-80
2021/03/14 17:50:23;;;;;;;36.65;20.02;;;359.00;1843.20;;;;;;4915937;29;20431;-79
2021/03/14 17:52:50;;;;;;;29.95;19.10;;;359.00;1868.80;;;;;;4916599;29;20024;-80
2021/03/14 17:55:18;;;;;;;27.30;17.90;;;359.00;1868.80;;;;;;4917293;29;20394;-77
2021/03/14 17:57:48;;;;;;;23.80;16.50;;;358.90;1868.80;;;;;;4916247;29;20035;-78
2021/03/14 18:00:18;;;;;;;26.40;16.10;;;358.90;1868.80;;;;;;4916176;29;20034;-81
2021/03/14 18:02:45;;;;;;;19.13;14.07;;;358.90;1843.20;;;;;;4917445;29;20079;-79
2021/03/14 18:05:12;;;;;;;15.95;11.63;;;358.90;1817.60;;;;;;4915811;29;20467;-78
2021/03/14 18:07:38;;;;;;;25.90;16.08;;;359.00;1817.60;;;;;;4916124;29;20032;-79
2021/03/14 18:10:06;;;;;;;25.85;16.70;;;358.90;1843.20;;;;;;4917456;29;20095;-80
2021/03/14 18:12:32;;;;;;;36.20;21.75;;;358.90;1843.20;;;;;;4920601;29;20028;-80
2021/03/14 18:14:58;;;;;;;26.65;19.27;;;358.80;1868.80;;;;;;4910224;29;20448;-80
2021/03/14 18:17:24;;;;;;;24.75;16.95;;;358.80;1868.80;;;;;;4931303;29;20127;-83
2021/03/14 18:19:50;;;;;;;21.67;15.25;;;358.80;1843.20;;;;;;4901517;29;20033;-80
2021/03/14 18:22:16;;;;;;;19.33;12.18;;;358.80;1868.80;;;;;;4932344;29;20120;-82
2021/03/14 18:24:43;;;;;;;21.40;14.45;;;358.80;1843.20;;;;;;4902064;29;20190;-80
2021/03/14 18:27:09;;;;;;;32.53;20.02;;;358.80;1843.20;;;;;;4884520;29;20111;-81
2021/03/14 18:29:34;;;;;;;20.50;15.07;;;358.80;1868.80;;;;;;4885088;29;20080;-80
2021/03/14 18:32:00;;;;;;;34.80;19.48;;;358.80;1868.80;;;;;;4931710;29;20032;-80
2021/03/14 18:34:26;;;;;;;26.55;16.83;;;358.70;1868.80;;;;;;4900410;29;20028;-81
2021/03/14 18:36:52;;;;;;;22.08;15.35;;;358.70;1843.20;;;;;;4900535;29;20079;-82
2021/03/14 18:39:18;;;;;;;22.88;15.85;;;358.70;1843.20;;;;;;4900492;29;20025;-81
2021/03/14 18:41:43;;;;;;;30.20;21.98;;;358.70;1817.60;;;;;;4885362;29;20421;-90
2021/03/14 18:44:09;;;;;;;26.80;20.13;;;358.70;1817.60;;;;;;4932761;29;20491;-86
2021/03/14 18:46:36;;;;;;;20.77;14.60;;;358.70;1792.00;;;;;;4885301;29;20033;-86